Airfield :
LOGIN :

Register | Disclaimer

   EN    FR    IT 

 










Legend :    VFR   Marginal VFR   IFR   Intensive IFR   Very Intensive IFR
Visi :
Ceiling :
>= 8 km
>= 3000ft
5 to 8 km
1000 to 3000 ft
1500m to 5 km
500 to 1000 ft
800 to 1500m
200 to 500 ft
< 800m
< 200 ft
Symbols :   Thunderstorms  Fog  Heavy snow  Heavy precipitations  Wind > 20 kt
SIGMETs :     Misc.  Thunderstorms  Icing  Turbulence  Mountain Waves  Volcanic Ashes






- Airport Elevation : 466 ft


LHPA - Pápa

CURRENT METAR :
  • 271445Z 13005KT 100V170 9999 SCT066TCU 26/09 Q1017 NOSIG RMK BLU

EXPIRED METARs :
  • 271415Z 13005KT 9999 SCT066TCU 26/07 Q1017 NOSIG RMK BLU
  • 271345Z 18005KT 090V260 9999 SCT066TCU 27/08 Q1017 NOSIG RMK BLU
  • 271315Z 15005KT 090V230 9999 SCT063TCU 27/10 Q1018 NOSIG RMK BLU
  • 271245Z 16007KT 120V180 9999 SCT056TCU 27/08 Q1018 NOSIG RMK BLU
  • 271215Z VRB03KT 9999 SCT056TCU 26/11 Q1018 NOSIG RMK BLU
  • 271145Z VRB04KT 9999 SCT056TCU 26/11 Q1019 NOSIG RMK BLU
  • 271115Z VRB04KT CAVOK 26/08 Q1019 NOSIG RMK BLU
  • 271045Z VRB03KT CAVOK 26/10 Q1019 NOSIG RMK BLU

TAF TAF LHPA
Valid from the 27 at 12:00 until the 28 at 12:00 UTC


271115Z 2712/2812 20006KT CAVOK
PROB30
TEMPO 2712/2715 9999 SHRA -TSRA SCT050CB SCT060TCU
BECMG 2715/2717 VRB03KT
PROB30
TEMPO 2809/2812 8000 SHRA -TSRA SCT040CB SCT050TCU



MET'MAP, your aeronautical weather chart ! - Copyright ORBIFLY December 2007 - Disclaimer

ORBIFLY MET'MAP TEAM :

Programming & Development : Alexandra Zaïnal
Original concept : Baudouin d'Aumeries
Technical & hardware support : Manuel Goepfert
Assistance : Marc-Olivier Méhu




SOURCES & CREDITS :

   NOAA